Monatstabelle

Bitte in den Auwahlmenüs den gewünschte Zeiraum wählen und die Schaltfläche "Anfrage absenden" betätigen. Beginn der Aufzeichnung ist 2007 - Dezember. Vor diesem Zeitraum sind keine Daten verfügbar.

2021 - November

 

Datum Temperatur (°C) Luftdruck (hPa) Luftfeuchte (%) Regen
(l/m²)
Wind (km/h)
avg: min: max: avg: min: max: avg: min: max: avg: max:
01.11.2021 9,3 4,6 16,7 1001,6 1000,8 1005,7 77 51 87 0,3 1,3 12,7
02.11.2021 5,0 2,2 10,2 1002,1 998,1 1004,2 89 80 93 19,9 2,4 4,8
03.11.2021 8,7 0,9 14,7 1000,9 999,2 1004,3 87 64 95 1,9 7,3 17,7
04.11.2021 8,9 2,9 15,0 1004,3 994,3 1011,6 81 61 92 0,6 3,3 9,7
05.11.2021 5,2 1,0 13,1 1019,6 1011,6 1023,8 76 48 92 0,0 2,5 7,6
06.11.2021 6,5 -0,4 12,3 1024,1 1021,2 1027,3 76 58 94 0,0 2,1 10,0
07.11.2021 4,5 1,3 13,2 1015,0 1013,0 1021,2 81 58 93 0,0 0,9 6,3
08.11.2021 4,1 -0,4 11,7 1018,9 1013,6 1021,6 80 58 92 0,0 2,2 8,0
09.11.2021 7,1 -0,3 12,4 1026,0 1021,1 1027,5 69 52 91 0,0 7,2 18,8
10.11.2021 8,2 3,9 13,1 1022,5 1021,1 1024,6 67 53 81 0,0 9,0 19,8
11.11.2021 4,3 1,2 5,9 1020,3 1019,9 1021,4 89 81 91 0,0 0,6 5,1
12.11.2021 2,4 -0,5 5,3 1016,1 1013,9 1020,2 88 87 92 0,0 1,3 5,0
13.11.2021 3,5 -1,2 5,3 1014,4 1012,9 1015,6 89 86 93 0,0 2,5 4,2
14.11.2021 4,2 2,9 5,0 1019,2 1014,9 1021,4 92 90 93 0,2 3,0 6,6
15.11.2021 5,5 3,4 8,7 1022,4 1021,1 1023,1 89 82 93 0,0 0,4 6,3
16.11.2021 7,4 5,4 10,4 1018,8 1015,5 1022,6 74 63 90 0,0 7,9 13,7
17.11.2021 4,8 1,2 6,3 1018,6 1015,5 1020,9 86 75 89 0,0 0,7 11,3
18.11.2021 4,4 1,8 10,8 1024,4 1020,7 1025,2 79 60 89 0,0 4,2 15,6
19.11.2021 9,2 3,3 14,4 1021,7 1021,1 1024,1 69 51 86 0,0 4,5 11,7
20.11.2021 5,4 0,2 13,3 1018,4 1014,2 1022,1 80 60 89 0,0 5,4 15,6
21.11.2021 2,5 -1,7 5,1 1008,0 1005,8 1014,1 92 88 94 0,0 0,9 4,8
22.11.2021 4,3 2,5 5,9 1015,0 1008,9 1019,4 90 79 93 2,4 2,5 11,9
23.11.2021 0,9 -3,0 7,1 1023,4 1019,6 1024,6 83 65 92 0,0 3,0 11,7
24.11.2021 2,3 -4,3 8,5 1017,0 1012,7 1023,7 75 59 94 0,2 6,2 13,7
25.11.2021 1,2 -1,1 5,2 1005,0 1003,1 1012,4 79 65 90 0,0 4,3 20,9
26.11.2021 0,3 -0,5 0,7 994,2 991,9 1003,4 91 89 92 0,0 1,1 5,6
27.11.2021 1,3 -0,9 4,6 993,4 991,3 995,1 90 82 93 0,0 3,2 10,1
28.11.2021 0,0 -0,9 1,8 992,2 990,5 994,6 92 90 93 0,0 0,7 9,7
29.11.2021 1,1 -0,6 2,5 1000,2 992,2 1004,6 74 66 92 0,0 10,9 18,3
30.11.2021 3,6 0,6 6,1 1003,8 1000,4 1007,3 73 59 79 0,0 6,3 14,6
avg. 4,5 1012,7 82   ---
  Summe Regen: 25,4  
 
Min-Datum 24.11.2021 28.11.2021 05.11.2021 --- ---
Min-Zeit 07:10 14:20 14:50 --- ---
Minimum -4,3 990,5 48 --- ---
 

Max-Datum

01.11.2021 09.11.2021 03.11.2021 02.11.2021 25.11.2021
Max-Zeit 14:15 11:38 09:15 04:15 03:20
Maximum 16,7 1027,5 95 19,9 20,9
 

 

  Letztes Jahr
gleiches Monat
Eistage max < 0°C 0 0
Frosttage min < 0°C 13 14
Sommertage max >=25°C 0 0
Heiße Tage max >=30°C 0 0

 

<<< nach oben >>>